createdAt,value
2023-02-21T00:00:21.428Z,8.48
2023-02-21T00:02:47.746Z,8.47
2023-02-21T00:05:14.078Z,8.43
2023-02-21T00:07:40.384Z,8.48
2023-02-21T00:10:07.332Z,8.45
2023-02-21T00:12:33.656Z,8.42
2023-02-21T00:14:59.957Z,8.49
2023-02-21T00:17:27.617Z,8.50
2023-02-21T00:19:53.932Z,8.43
2023-02-21T00:22:20.235Z,8.50
2023-02-21T00:24:46.622Z,8.45
2023-02-21T00:27:12.945Z,8.43
2023-02-21T00:29:39.278Z,8.42
2023-02-21T00:32:05.662Z,8.39
2023-02-21T00:34:33.319Z,8.39
2023-02-21T00:36:59.639Z,8.40
2023-02-21T00:39:25.955Z,8.38
2023-02-21T00:41:52.233Z,8.48
2023-02-21T00:44:18.529Z,8.38
2023-02-21T00:46:44.846Z,8.33
2023-02-21T00:49:11.143Z,8.38
2023-02-21T00:51:38.780Z,8.39
2023-02-21T00:54:05.118Z,8.40
2023-02-21T00:56:31.423Z,8.31
2023-02-21T00:58:57.748Z,8.31
2023-02-21T01:01:24.101Z,8.32
2023-02-21T01:03:50.546Z,8.31
2023-02-21T01:06:16.884Z,8.33
2023-02-21T01:08:45.416Z,8.24
2023-02-21T01:11:14.314Z,8.26
2023-02-21T01:13:41.054Z,8.24
2023-02-21T01:16:07.536Z,8.26
2023-02-21T01:18:33.868Z,8.26
2023-02-21T01:21:00.205Z,8.27
2023-02-21T01:23:26.524Z,8.23
2023-02-21T01:25:54.205Z,8.21
2023-02-21T01:28:20.529Z,8.20
2023-02-21T01:30:46.958Z,8.23
2023-02-21T01:33:13.331Z,8.20
2023-02-21T01:35:39.658Z,8.20
2023-02-21T01:38:05.956Z,8.18
2023-02-21T01:40:32.262Z,8.15
2023-02-21T01:42:59.994Z,8.10
2023-02-21T01:45:38.422Z,8.08
2023-02-21T01:48:05.338Z,8.11
2023-02-21T01:50:31.829Z,8.10
2023-02-21T01:52:58.623Z,8.10
2023-02-21T01:55:25.024Z,8.11
2023-02-21T01:57:52.629Z,8.06
2023-02-21T02:00:20.713Z,8.06
2023-02-21T02:02:50.223Z,8.10
2023-02-21T02:05:17.516Z,8.04
2023-02-21T02:07:43.818Z,8.03
2023-02-21T02:10:10.637Z,8.05
2023-02-21T02:12:54.980Z,8.07
2023-02-21T02:15:28.514Z,8.06
2023-02-21T02:18:03.148Z,8.04
2023-02-21T02:20:46.647Z,8.06
2023-02-21T02:23:40.184Z,8.04
2023-02-21T02:26:17.766Z,8.04
2023-02-21T02:28:52.603Z,8.01
2023-02-21T02:31:28.055Z,7.97
2023-02-21T02:34:15.540Z,8.10
2023-02-21T02:36:44.361Z,8.12
2023-02-21T02:39:15.432Z,8.04
2023-02-21T02:41:46.653Z,7.96
2023-02-21T02:44:15.114Z,7.96
2023-02-21T02:46:43.583Z,7.94
2023-02-21T02:49:12.689Z,7.97
2023-02-21T02:51:39.103Z,7.95
2023-02-21T02:54:06.943Z,7.91
2023-02-21T02:56:33.410Z,7.90
2023-02-21T02:59:02.108Z,7.89
2023-02-21T03:01:48.355Z,7.91
2023-02-21T03:04:22.180Z,7.94
2023-02-21T03:06:54.486Z,7.93
2023-02-21T03:09:25.806Z,7.92
2023-02-21T03:11:59.374Z,7.99
2023-02-21T03:14:30.605Z,7.96
2023-02-21T03:17:01.142Z,7.92
2023-02-21T03:19:28.819Z,7.93
2023-02-21T03:21:57.714Z,7.93
2023-02-21T03:24:26.620Z,7.88
2023-02-21T03:26:54.109Z,7.93
2023-02-21T03:29:20.784Z,7.89
2023-02-21T03:31:49.143Z,7.83
2023-02-21T03:34:15.722Z,7.90
2023-02-21T03:36:42.477Z,7.90
2023-02-21T03:39:08.780Z,7.92
2023-02-21T03:41:36.426Z,7.94
2023-02-21T03:44:02.713Z,7.89
2023-02-21T03:46:29.041Z,7.85
2023-02-21T03:48:55.520Z,7.82
2023-02-21T03:51:22.059Z,7.79
2023-02-21T03:53:48.399Z,7.80
2023-02-21T03:56:14.725Z,7.87
2023-02-21T03:58:42.396Z,7.81
2023-02-21T04:01:08.756Z,7.81
2023-02-21T04:03:35.100Z,7.83
2023-02-21T04:06:01.412Z,7.83
2023-02-21T04:08:27.697Z,7.94
2023-02-21T04:10:53.990Z,7.85
2023-02-21T04:13:20.389Z,7.82
2023-02-21T04:15:48.179Z,7.80
2023-02-21T04:18:14.489Z,7.78
2023-02-21T04:20:40.773Z,7.81
2023-02-21T04:23:07.118Z,7.82
2023-02-21T04:25:33.475Z,7.84
2023-02-21T04:27:59.802Z,7.84
2023-02-21T04:30:26.175Z,7.77
2023-02-21T04:32:53.885Z,7.77
2023-02-21T04:35:20.302Z,7.75
2023-02-21T04:37:46.689Z,7.79
2023-02-21T04:40:13.128Z,7.78
2023-02-21T04:42:39.573Z,7.81
2023-02-21T04:45:06.225Z,7.82
2023-02-21T04:47:32.612Z,7.76
2023-02-21T04:50:00.263Z,7.74
2023-02-21T04:52:26.686Z,7.76
2023-02-21T04:54:53.125Z,7.75
2023-02-21T04:57:19.482Z,7.72
2023-02-21T04:59:45.816Z,7.70
2023-02-21T05:02:12.163Z,7.71
2023-02-21T05:04:38.658Z,7.68
2023-02-21T05:07:06.661Z,7.69
2023-02-21T05:09:32.996Z,7.68
2023-02-21T05:11:59.417Z,7.68
2023-02-21T05:14:25.754Z,7.72
2023-02-21T05:16:52.126Z,7.70
2023-02-21T05:19:18.809Z,7.75
2023-02-21T05:21:45.164Z,7.72
2023-02-21T05:24:12.841Z,7.72
2023-02-21T05:26:39.237Z,7.74
2023-02-21T05:29:05.556Z,7.76
2023-02-21T05:31:31.899Z,7.72
2023-02-21T05:33:58.262Z,7.67
2023-02-21T05:36:24.627Z,7.65
2023-02-21T05:38:51.986Z,7.69
2023-02-21T05:41:19.813Z,7.65
2023-02-21T05:43:47.025Z,7.68
2023-02-21T05:46:20.504Z,7.70
2023-02-21T05:48:46.841Z,7.67
2023-02-21T05:51:13.458Z,7.67
2023-02-21T05:53:39.927Z,7.63
2023-02-21T05:56:06.441Z,7.62
2023-02-21T05:58:34.101Z,7.63
2023-02-21T06:01:00.392Z,7.61
2023-02-21T06:03:26.700Z,7.60
2023-02-21T06:05:53.014Z,7.61
2023-02-21T06:08:19.306Z,7.62
2023-02-21T06:10:46.158Z,7.58
2023-02-21T06:13:13.294Z,7.51
2023-02-21T06:15:40.961Z,7.55
2023-02-21T06:18:07.296Z,7.52
2023-02-21T06:20:33.597Z,7.54
2023-02-21T06:22:59.935Z,7.50
2023-02-21T06:25:26.239Z,7.52
2023-02-21T06:27:52.524Z,7.52
2023-02-21T06:30:19.080Z,7.53
2023-02-21T06:32:47.033Z,7.51
2023-02-21T06:35:13.348Z,7.50
2023-02-21T06:37:39.657Z,7.51
2023-02-21T06:40:06.262Z,7.54
2023-02-21T06:42:32.548Z,7.55
2023-02-21T06:44:58.939Z,7.56
2023-02-21T06:47:25.250Z,7.59
2023-02-21T06:49:52.993Z,7.57
2023-02-21T06:52:19.342Z,7.56
2023-02-21T06:54:45.684Z,7.54
2023-02-21T06:57:12.004Z,7.53
2023-02-21T06:59:38.375Z,7.54
2023-02-21T07:02:04.681Z,7.53
2023-02-21T07:04:30.987Z,7.59
2023-02-21T07:06:58.658Z,7.52
2023-02-21T07:09:24.986Z,7.53
2023-02-21T07:11:51.298Z,7.55
2023-02-21T07:14:17.599Z,7.56
2023-02-21T07:16:43.921Z,7.59
2023-02-21T07:19:11.243Z,7.55
2023-02-21T07:24:04.217Z,7.59
2023-02-21T07:26:30.505Z,7.58
2023-02-21T07:28:56.876Z,7.57
2023-02-21T07:31:23.545Z,7.57
2023-02-21T07:33:49.947Z,7.54
2023-02-21T07:36:16.342Z,7.53
2023-02-21T07:38:42.718Z,7.54
2023-02-21T07:41:10.412Z,7.54
2023-02-21T07:43:36.756Z,7.54
2023-02-21T07:46:03.144Z,7.54
2023-02-21T07:48:29.704Z,7.57
2023-02-21T07:50:56.010Z,7.54
2023-02-21T07:53:22.328Z,7.53
2023-02-21T07:55:48.650Z,7.56
2023-02-21T07:58:16.309Z,7.55
2023-02-21T08:00:42.667Z,7.56
2023-02-21T08:03:12.081Z,7.58
2023-02-21T08:05:38.423Z,7.58
2023-02-21T08:08:06.491Z,7.59
2023-02-21T08:10:32.788Z,7.60
2023-02-21T08:12:59.104Z,7.62
2023-02-21T08:15:26.766Z,7.63
2023-02-21T08:17:53.087Z,7.61
2023-02-21T08:20:19.432Z,7.64
2023-02-21T08:22:46.222Z,7.65
2023-02-21T08:25:13.011Z,7.65
2023-02-21T08:27:39.391Z,7.67
2023-02-21T08:30:06.139Z,7.69
2023-02-21T08:32:33.901Z,7.70
2023-02-21T08:35:00.237Z,7.72
2023-02-21T08:37:26.561Z,7.68
2023-02-21T08:39:53.146Z,7.73
2023-02-21T08:42:19.715Z,7.77
2023-02-21T08:44:46.166Z,7.79
2023-02-21T08:47:12.761Z,7.86
2023-02-21T08:49:40.397Z,7.87
2023-02-21T08:52:06.703Z,7.90
2023-02-21T08:54:33.000Z,7.90
2023-02-21T08:56:59.408Z,7.94
2023-02-21T08:59:25.869Z,7.98
2023-02-21T09:01:52.308Z,8.00
2023-02-21T09:04:18.617Z,7.98
2023-02-21T09:06:46.277Z,8.03
2023-02-21T09:09:12.624Z,8.04
2023-02-21T09:11:38.912Z,7.98
2023-02-21T09:14:05.250Z,7.98
2023-02-21T09:16:31.601Z,8.01
2023-02-21T09:18:59.104Z,8.06
2023-02-21T09:21:25.742Z,8.02
2023-02-21T09:23:53.961Z,8.04
2023-02-21T09:26:20.435Z,8.05
2023-02-21T09:28:46.738Z,8.13
2023-02-21T09:31:13.429Z,8.17
2023-02-21T09:33:40.062Z,8.19
2023-02-21T09:36:06.877Z,8.15
2023-02-21T09:38:33.189Z,8.15
2023-02-21T09:41:01.862Z,8.18
2023-02-21T09:43:31.460Z,8.22
2023-02-21T09:46:00.681Z,8.24
2023-02-21T09:48:27.359Z,8.27
2023-02-21T09:50:55.550Z,8.31
2023-02-21T09:53:24.420Z,8.29
2023-02-21T09:55:51.697Z,8.29
2023-02-21T09:58:20.476Z,8.26
2023-02-21T10:00:47.148Z,8.26
2023-02-21T10:03:31.205Z,8.26
2023-02-21T10:05:59.705Z,8.24
2023-02-21T10:08:29.989Z,8.23
2023-02-21T10:10:57.906Z,8.24
2023-02-21T10:13:32.248Z,8.24
2023-02-21T10:16:01.729Z,8.24
2023-02-21T10:18:33.452Z,8.25
2023-02-21T10:21:01.271Z,8.20
2023-02-21T10:23:31.701Z,8.23
2023-02-21T10:26:01.510Z,8.28
2023-02-21T10:28:29.191Z,8.30
2023-02-21T10:30:58.142Z,8.32
2023-02-21T10:33:24.572Z,8.29
2023-02-21T10:35:50.974Z,8.30
2023-02-21T10:38:18.944Z,8.35
2023-02-21T10:40:46.529Z,8.41
2023-02-21T10:43:16.016Z,8.43
2023-02-21T10:45:47.049Z,8.47
2023-02-21T10:48:13.806Z,8.50
2023-02-21T10:50:42.093Z,8.54
2023-02-21T10:53:08.696Z,8.53
2023-02-21T10:55:35.308Z,8.49
2023-02-21T10:58:06.684Z,8.57
2023-02-21T11:00:34.036Z,8.59
2023-02-21T11:03:05.773Z,8.65
2023-02-21T11:05:32.366Z,8.67
2023-02-21T11:08:00.692Z,8.69
2023-02-21T11:10:28.494Z,8.76
2023-02-21T11:13:01.784Z,8.75
2023-02-21T11:15:28.117Z,8.76
2023-02-21T11:18:02.701Z,8.75
2023-02-21T11:20:30.353Z,8.83
2023-02-21T11:22:56.652Z,8.87
2023-02-21T11:25:25.159Z,8.92
2023-02-21T11:28:02.702Z,8.91
2023-02-21T11:30:30.115Z,8.96
2023-02-21T11:32:57.719Z,8.97
2023-02-21T11:35:25.929Z,8.98
2023-02-21T11:37:54.835Z,9.01
2023-02-21T11:40:29.446Z,8.97
2023-02-21T11:43:11.850Z,8.96
2023-02-21T11:45:40.633Z,8.98
2023-02-21T11:48:11.584Z,8.98
2023-02-21T11:50:40.590Z,8.94
2023-02-21T11:53:17.076Z,8.90
2023-02-21T11:55:52.052Z,8.88
2023-02-21T11:58:26.598Z,8.85
2023-02-21T12:00:56.568Z,8.78
2023-02-21T12:03:32.193Z,8.76
2023-02-21T12:06:02.831Z,8.74
2023-02-21T12:08:37.263Z,8.71
2023-02-21T12:11:09.929Z,8.73
2023-02-21T12:13:43.801Z,8.79
2023-02-21T12:16:14.781Z,8.74
2023-02-21T12:18:51.362Z,8.65
2023-02-21T12:21:33.639Z,8.69
2023-02-21T12:24:07.416Z,8.68
2023-02-21T12:26:44.522Z,8.73
2023-02-21T12:29:19.214Z,8.78
2023-02-21T12:31:52.453Z,8.76
2023-02-21T12:34:27.249Z,8.75
2023-02-21T12:37:09.992Z,8.74
2023-02-21T12:39:46.153Z,8.72
2023-02-21T12:42:23.713Z,8.75
2023-02-21T12:44:54.446Z,8.77
2023-02-21T12:47:23.367Z,8.75
2023-02-21T12:49:52.189Z,8.75
2023-02-21T12:52:21.565Z,8.75
2023-02-21T12:54:54.569Z,8.75
2023-02-21T12:57:22.402Z,8.79
2023-02-21T12:59:52.650Z,8.76
2023-02-21T13:02:23.772Z,8.82
2023-02-21T13:04:52.780Z,8.83
2023-02-21T13:07:22.948Z,8.83
2023-02-21T13:09:54.474Z,8.82
2023-02-21T13:12:23.375Z,8.77
2023-02-21T13:14:54.414Z,8.74
2023-02-21T13:17:20.780Z,8.75
2023-02-21T13:19:48.667Z,8.73
2023-02-21T13:22:33.612Z,8.75
2023-02-21T13:25:06.337Z,8.73
2023-02-21T13:27:46.547Z,8.72
2023-02-21T13:30:14.490Z,8.77
2023-02-21T13:32:49.622Z,8.76
2023-02-21T13:35:18.872Z,8.76
2023-02-21T13:37:46.330Z,8.79
2023-02-21T13:40:19.399Z,8.76
2023-02-21T13:42:45.929Z,8.71
2023-02-21T13:45:16.198Z,8.67
2023-02-21T13:48:01.187Z,8.65
2023-02-21T13:50:45.263Z,8.62
2023-02-21T13:53:15.227Z,8.53
2023-02-21T13:56:02.855Z,8.55
2023-02-21T13:58:35.058Z,8.59
2023-02-21T14:01:16.929Z,8.64
2023-02-21T14:03:43.257Z,8.69
2023-02-21T14:06:22.045Z,8.73
2023-02-21T14:08:49.244Z,8.76
2023-02-21T14:11:20.466Z,8.79
2023-02-21T14:13:49.627Z,8.79
2023-02-21T14:16:19.076Z,8.78
2023-02-21T14:18:47.330Z,8.81
2023-02-21T14:21:15.551Z,8.79
2023-02-21T14:23:46.984Z,8.79
2023-02-21T14:26:28.168Z,8.76
2023-02-21T14:29:09.761Z,8.79
2023-02-21T14:31:55.435Z,8.68
2023-02-21T14:34:26.967Z,8.59
2023-02-21T14:36:54.292Z,8.57
2023-02-21T14:39:22.359Z,8.62
2023-02-21T14:42:01.245Z,8.64
2023-02-21T14:44:34.700Z,8.67
2023-02-21T14:47:19.858Z,8.70
2023-02-21T14:49:56.450Z,8.72
2023-02-21T14:52:37.585Z,8.73
2023-02-21T14:55:31.012Z,8.76
2023-02-21T14:58:27.393Z,8.73
2023-02-21T15:01:00.641Z,8.66
2023-02-21T15:03:30.802Z,8.66
2023-02-21T15:06:03.125Z,8.66
2023-02-21T15:08:39.129Z,8.69
2023-02-21T15:11:14.471Z,8.65
2023-02-21T15:13:40.935Z,8.61
2023-02-21T15:16:09.978Z,8.62
2023-02-21T15:18:37.373Z,8.60
2023-02-21T15:21:05.703Z,8.58
2023-02-21T15:23:32.549Z,8.56
2023-02-21T15:25:59.820Z,8.52
2023-02-21T15:28:27.118Z,8.52
2023-02-21T15:30:58.930Z,8.45
2023-02-21T15:33:27.824Z,8.43
2023-02-21T15:35:55.537Z,8.43
2023-02-21T15:38:23.275Z,8.48
2023-02-21T15:40:52.782Z,8.40
2023-02-21T15:43:24.350Z,8.33
2023-02-21T15:45:52.602Z,8.33
2023-02-21T15:48:19.029Z,8.36
2023-02-21T15:50:47.206Z,8.33
2023-02-21T15:53:15.305Z,8.31
2023-02-21T15:55:41.979Z,8.34
2023-02-21T15:58:19.300Z,8.32
2023-02-21T16:00:46.183Z,8.31
2023-02-21T16:03:31.277Z,8.31
2023-02-21T16:06:11.817Z,8.26
2023-02-21T16:08:38.696Z,8.25
2023-02-21T16:11:05.251Z,8.22
2023-02-21T16:13:34.919Z,8.19
2023-02-21T16:16:01.322Z,8.10
2023-02-21T16:18:27.784Z,8.03
2023-02-21T16:20:58.969Z,8.03
2023-02-21T16:23:30.588Z,8.06
2023-02-21T16:25:58.354Z,8.06
2023-02-21T16:28:24.693Z,8.04
2023-02-21T16:30:51.275Z,8.00
2023-02-21T16:33:17.615Z,8.07
2023-02-21T16:35:43.907Z,8.00
2023-02-21T16:38:13.324Z,7.98
2023-02-21T16:40:41.049Z,7.97
2023-02-21T16:43:07.342Z,7.97
2023-02-21T16:45:33.754Z,8.01
2023-02-21T16:48:01.984Z,7.99
2023-02-21T16:50:29.498Z,7.94
2023-02-21T16:52:55.984Z,7.93
2023-02-21T16:55:22.333Z,7.94
2023-02-21T16:57:52.890Z,7.96
2023-02-21T17:00:21.272Z,7.98
2023-02-21T17:02:47.724Z,7.93
2023-02-21T17:05:14.482Z,7.89
2023-02-21T17:07:40.796Z,7.85
2023-02-21T17:10:07.721Z,7.83
2023-02-21T17:12:34.004Z,7.84
2023-02-21T17:15:01.666Z,7.86
2023-02-21T17:17:29.715Z,7.85
2023-02-21T17:19:56.021Z,7.85
2023-02-21T17:22:22.433Z,7.86
2023-02-21T17:24:48.747Z,7.82
2023-02-21T17:27:15.064Z,7.81
2023-02-21T17:29:41.378Z,7.78
2023-02-21T17:32:09.072Z,7.78
2023-02-21T17:34:35.860Z,7.74
2023-02-21T17:37:02.528Z,7.71
2023-02-21T17:39:29.319Z,7.75
2023-02-21T17:41:56.135Z,7.78
2023-02-21T17:44:22.685Z,7.71
2023-02-21T17:46:49.856Z,7.71
2023-02-21T17:49:18.395Z,7.72
2023-02-21T17:51:44.743Z,7.75
2023-02-21T17:54:11.041Z,7.76
2023-02-21T17:56:37.337Z,7.73
2023-02-21T17:59:03.687Z,7.70
2023-02-21T18:01:30.052Z,7.70
2023-02-21T18:03:56.682Z,7.70
2023-02-21T18:06:24.304Z,7.75
2023-02-21T18:08:50.683Z,7.70
2023-02-21T18:11:17.660Z,7.68
2023-02-21T18:13:44.233Z,7.72
2023-02-21T18:16:10.646Z,7.70
2023-02-21T18:18:36.926Z,7.72
2023-02-21T18:21:03.710Z,7.74
2023-02-21T18:23:31.802Z,7.73
2023-02-21T18:25:58.705Z,7.73
2023-02-21T18:28:25.883Z,7.72
2023-02-21T18:30:52.189Z,7.74
2023-02-21T18:33:18.714Z,7.72
2023-02-21T18:35:45.294Z,7.66
2023-02-21T18:38:11.775Z,7.67
2023-02-21T18:40:39.441Z,7.63
2023-02-21T18:43:05.804Z,7.56
2023-02-21T18:45:32.302Z,7.59
2023-02-21T18:47:59.799Z,7.59
2023-02-21T18:50:26.134Z,7.60
2023-02-21T18:52:52.425Z,7.60
2023-02-21T18:55:19.048Z,7.62
2023-02-21T18:57:47.013Z,7.65
2023-02-21T19:00:16.072Z,7.66
2023-02-21T19:02:42.371Z,7.66
2023-02-21T19:05:09.854Z,7.67
2023-02-21T19:07:36.236Z,7.62
2023-02-21T19:10:02.574Z,7.62
2023-02-21T19:12:28.879Z,7.62
2023-02-21T19:14:56.550Z,7.61
2023-02-21T19:17:22.883Z,7.59
2023-02-21T19:19:49.210Z,7.55
2023-02-21T19:22:15.525Z,7.55
2023-02-21T19:24:41.863Z,7.57
2023-02-21T19:27:08.217Z,7.60
2023-02-21T19:29:34.555Z,7.62
2023-02-21T19:32:02.356Z,7.62
2023-02-21T19:34:28.877Z,7.64
2023-02-21T19:36:55.166Z,7.60
2023-02-21T19:39:21.507Z,7.62
2023-02-21T19:41:48.294Z,7.61
2023-02-21T19:44:14.670Z,7.57
2023-02-21T19:46:41.079Z,7.51
2023-02-21T19:49:09.791Z,7.49
2023-02-21T19:51:36.061Z,7.52
2023-02-21T19:54:02.392Z,7.52
2023-02-21T19:56:28.930Z,7.50
2023-02-21T19:58:55.317Z,7.52
2023-02-21T20:01:21.716Z,7.52
2023-02-21T20:03:48.436Z,7.51
2023-02-21T20:06:16.382Z,7.48
2023-02-21T20:08:43.132Z,7.46
2023-02-21T20:11:10.282Z,7.43
2023-02-21T20:13:36.587Z,7.43
2023-02-21T20:16:02.959Z,7.46
2023-02-21T20:18:29.291Z,7.44
2023-02-21T20:20:55.574Z,7.42
2023-02-21T20:23:23.247Z,7.40
2023-02-21T20:25:49.527Z,7.34
2023-02-21T20:28:15.830Z,7.30
2023-02-21T20:30:42.231Z,7.31
2023-02-21T20:33:08.563Z,7.31
2023-02-21T20:35:34.898Z,7.31
2023-02-21T20:38:01.196Z,7.36
2023-02-21T20:40:28.890Z,7.38
2023-02-21T20:42:55.210Z,7.37
2023-02-21T20:45:21.530Z,7.37
2023-02-21T20:47:47.860Z,7.36
2023-02-21T20:50:17.667Z,7.38
2023-02-21T20:52:44.005Z,7.40
2023-02-21T20:55:10.495Z,7.39
2023-02-21T20:57:38.159Z,7.41
2023-02-21T21:00:05.191Z,7.40
2023-02-21T21:02:31.468Z,7.41
2023-02-21T21:04:57.768Z,7.41
2023-02-21T21:07:24.087Z,7.38
2023-02-21T21:09:50.453Z,7.40
2023-02-21T21:12:18.074Z,7.34
2023-02-21T21:14:46.283Z,7.36
2023-02-21T21:17:13.803Z,7.35
2023-02-21T21:19:40.753Z,7.37
2023-02-21T21:22:08.662Z,7.35
2023-02-21T21:24:35.654Z,7.28
2023-02-21T21:27:02.440Z,7.16
2023-02-21T21:29:28.755Z,7.09
2023-02-21T21:31:57.080Z,7.12
2023-02-21T21:34:24.446Z,7.11
2023-02-21T21:36:50.796Z,7.12
2023-02-21T21:39:17.220Z,7.11
2023-02-21T21:41:43.530Z,7.10
2023-02-21T21:44:09.824Z,7.12
2023-02-21T21:46:36.147Z,7.04
2023-02-21T21:49:03.792Z,7.11
2023-02-21T21:51:30.092Z,7.13
2023-02-21T21:53:56.393Z,7.14
2023-02-21T21:56:22.693Z,7.13
2023-02-21T21:58:48.970Z,7.15
2023-02-21T22:01:15.766Z,7.12
2023-02-21T22:03:42.276Z,7.08
2023-02-21T22:06:10.186Z,7.00
2023-02-21T22:08:36.768Z,6.97
2023-02-21T22:11:03.074Z,6.89
2023-02-21T22:13:29.444Z,6.88
2023-02-21T22:15:55.944Z,6.91
2023-02-21T22:18:22.255Z,6.88
2023-02-21T22:20:48.556Z,6.89
2023-02-21T22:23:16.386Z,6.89
2023-02-21T22:25:42.665Z,6.90
2023-02-21T22:28:11.915Z,6.89
2023-02-21T22:30:38.705Z,6.91
2023-02-21T22:33:05.286Z,6.86
2023-02-21T22:35:32.038Z,6.90
2023-02-21T22:37:58.883Z,6.88
2023-02-21T22:40:27.002Z,6.89
2023-02-21T22:42:53.970Z,6.91
2023-02-21T22:45:21.030Z,6.91
2023-02-21T22:47:47.459Z,6.82
2023-02-21T22:50:13.939Z,6.87
2023-02-21T22:52:40.271Z,6.87
2023-02-21T22:55:07.015Z,6.86
2023-02-21T22:57:34.698Z,6.85
2023-02-21T23:00:00.993Z,6.85
2023-02-21T23:02:27.320Z,6.83
2023-02-21T23:04:53.671Z,6.73
2023-02-21T23:07:19.987Z,6.75
2023-02-21T23:09:46.307Z,6.70
2023-02-21T23:12:12.595Z,6.64
2023-02-21T23:14:41.717Z,6.61
2023-02-21T23:17:08.048Z,6.62
2023-02-21T23:19:34.371Z,6.65
2023-02-21T23:22:00.875Z,6.68
2023-02-21T23:24:27.189Z,6.66
2023-02-21T23:26:53.614Z,6.61
2023-02-21T23:29:20.940Z,6.63
2023-02-21T23:31:48.743Z,6.58
2023-02-21T23:34:15.513Z,6.55
2023-02-21T23:36:42.212Z,6.55
2023-02-21T23:39:09.243Z,6.57
2023-02-21T23:41:35.958Z,6.57
2023-02-21T23:44:02.234Z,6.62
2023-02-21T23:46:28.576Z,6.62
2023-02-21T23:48:56.233Z,6.64
2023-02-21T23:51:22.552Z,6.63
2023-02-21T23:53:49.035Z,6.54
2023-02-21T23:56:15.614Z,6.59
2023-02-21T23:58:44.407Z,6.58
